Aviation Digital Data Service (ADDS)

Output produced by METARs form (1825 UTC 22 November 2017)
found at http://www.aviationweather.gov/adds/metars/
 
TAF KVBG 221459Z 2215/2321 12009KT 9999 FEW250 QNH3005INS 
     BECMG 2219/2220 29010KT 9999 FEW250 QNH3002INS 
     BECMG 2302/2303 12009KT 9999 FEW250 QNH3005INS 
     BECMG 2319/2320 29010KT 9999 SCT250 QNH3003INS TX31/2223Z TN12/2215Z
       
KVCT 221722Z 2218/2318 36014G22KT P6SM SKC 
     FM230000 35008KT P6SM SKC
       
KVEL 221733Z 2218/2318 26004KT P6SM FEW110 BKN250 
     FM230200 28004KT P6SM FEW110 BKN250 
     FM231200 VRB03KT P6SM SCT250
       
KVGT 221720Z 2218/2318 VRB04KT P6SM SKC 
     FM230300 31005KT P6SM SKC
       
KVIS 221720Z 2218/2318 VRB03KT 5SM HZ SKC 
     FM230800 04002KT 1 1/2SM BR SKC 
     FM231200 13002KT 1/4SM FG FEW250
       
KVLD 221720Z 2218/2318 03006KT P6SM OVC020 
     FM230600 03005KT 3SM -RA OVC010
       
KVNY 221727Z 2218/2318 36014KT P6SM SKC 
     FM230300 36007KT P6SM SKC 
     FM230900 VRB04KT P6SM SKC 
     FM231600 36007KT P6SM SKC
       
TAF KVPS 221800Z 2218/2400 01009KT 9999 FEW030 BKN150 BKN250 QNH3000INS 
     BECMG 2223/2224 02010KT 9999 VCSH BKN030 BKN100 OVC180 QNH2998INS 
     BECMG 2305/2306 02012KT 9999 NSW BKN020 BKN150 BKN250 QNH2998INS 
     BECMG 2313/2314 01012KT 9999 BKN030 BKN250 QNH3000INS 
     BECMG 2318/2319 02010KT 9999 SCT040 BKN250 QNH2995INS TX21/2219Z TN13/2312Z FCST BY USAF WX MET TECH
       
KVQQ 221720Z 2218/2318 04006KT P6SM SCT035 
     FM222300 05005KT P6SM OVC018 
     FM230400 04004KT 4SM BR OVC015 
     FM230900 03007KT 2SM -RA BR OVC007
       
KVRB 221753Z 2218/2318 03010KT P6SM SCT025 
     FM230600 08005KT P6SM VCSH SCT020 BKN035 
     FM231400 14007KT P6SM VCSH SCT025 OVC040
       
TAF KVTN 221740Z 2218/2318 25010G19KT P6SM SCT250 
     FM222300 28008KT P6SM SCT250 
     FM231300 25007KT P6SM FEW250